createdAt,value
2023-05-22T00:01:56.924Z,16.6
2023-05-22T00:06:56.877Z,16.58
2023-05-22T00:11:57.234Z,16.58
2023-05-22T00:16:58.481Z,16.53
2023-05-22T00:21:56.893Z,16.5
2023-05-22T00:26:56.850Z,16.51
2023-05-22T00:31:56.849Z,16.47
2023-05-22T00:36:56.894Z,16.44
2023-05-22T00:41:56.912Z,16.42
2023-05-22T00:46:57.168Z,16.42
2023-05-22T00:51:56.974Z,16.41
2023-05-22T00:56:57.126Z,16.44
2023-05-22T01:01:57.084Z,16.47
2023-05-22T01:06:57.046Z,16.45
2023-05-22T01:12:02.284Z,16.48
2023-05-22T01:17:01.988Z,16.48
2023-05-22T01:22:03.735Z,16.47
2023-05-22T01:27:06.590Z,16.43
2023-05-22T01:31:59.350Z,16.44
2023-05-22T01:36:57.107Z,16.48
2023-05-22T01:41:57.001Z,16.54
2023-05-22T01:47:00.398Z,16.54
2023-05-22T01:52:02.773Z,16.56
2023-05-22T01:56:59.025Z,16.48
2023-05-22T02:01:59.092Z,16.42
2023-05-22T02:06:57.341Z,16.4
2023-05-22T02:11:57.042Z,16.36
2023-05-22T02:16:58.009Z,16.28
2023-05-22T02:21:56.962Z,16.18
2023-05-22T02:26:56.959Z,16.14
2023-05-22T02:31:57.379Z,16.13
2023-05-22T02:36:57.070Z,16.07
2023-05-22T02:41:57.009Z,16.05
2023-05-22T02:46:57.255Z,16.11
2023-05-22T02:51:57.051Z,16.09
2023-05-22T02:56:56.988Z,16.05
2023-05-22T03:01:57.014Z,16.02
2023-05-22T03:06:57.038Z,15.98
2023-05-22T03:11:57.063Z,15.97
2023-05-22T03:16:57.086Z,15.99
2023-05-22T03:21:57.622Z,16.08
2023-05-22T03:26:57.029Z,16.12
2023-05-22T03:31:57.894Z,16.08
2023-05-22T03:36:57.811Z,16.03
2023-05-22T03:41:57.095Z,16.02
2023-05-22T03:46:57.100Z,16.03
2023-05-22T03:51:57.094Z,15.97
2023-05-22T03:56:57.213Z,15.88
2023-05-22T04:01:57.981Z,15.82
2023-05-22T04:06:58.115Z,15.77
2023-05-22T04:11:57.089Z,15.77
2023-05-22T04:16:57.253Z,15.76
2023-05-22T04:21:57.097Z,15.73
2023-05-22T04:26:59.944Z,15.7
2023-05-22T04:31:57.322Z,15.64
2023-05-22T04:36:57.112Z,15.61
2023-05-22T04:41:58.189Z,15.62
2023-05-22T04:46:57.321Z,15.7
2023-05-22T04:51:57.317Z,15.8
2023-05-22T04:56:57.181Z,15.97
2023-05-22T05:01:57.236Z,16.16
2023-05-22T05:06:57.555Z,16.32
2023-05-22T05:11:58.129Z,16.47
2023-05-22T05:16:58.687Z,16.68
2023-05-22T05:21:57.290Z,16.83
2023-05-22T05:26:57.584Z,17.08
2023-05-22T05:31:57.224Z,17.32
2023-05-22T05:36:57.184Z,17.39
2023-05-22T05:41:57.176Z,17.54
2023-05-22T05:46:57.864Z,17.72
2023-05-22T05:51:57.158Z,17.95
2023-05-22T05:56:57.154Z,18.18
2023-05-22T06:01:57.119Z,18.34
2023-05-22T06:06:57.180Z,18.52
2023-05-22T06:11:57.159Z,18.7
2023-05-22T06:16:57.346Z,18.78
2023-05-22T06:21:57.189Z,18.87
2023-05-22T06:26:57.172Z,18.99
2023-05-22T06:31:57.308Z,19.08
2023-05-22T06:36:57.304Z,19.51
2023-05-22T06:41:57.292Z,19.46
2023-05-22T06:46:57.342Z,19.65
2023-05-22T06:51:57.242Z,19.74
2023-05-22T06:56:57.205Z,19.76
2023-05-22T07:01:57.222Z,20.08
2023-05-22T07:06:57.264Z,20.46
2023-05-22T07:11:57.262Z,20.88
2023-05-22T07:16:57.277Z,21.25
2023-05-22T07:21:58.592Z,22.99
2023-05-22T07:26:57.269Z,25
2023-05-22T07:31:57.376Z,26.06
2023-05-22T07:36:57.239Z,26.81
2023-05-22T07:41:58.844Z,26.93
2023-05-22T07:46:57.380Z,28.11
2023-05-22T07:51:57.293Z,28.42
2023-05-22T07:56:57.410Z,28.33
2023-05-22T08:01:58.380Z,27.3
2023-05-22T08:06:57.303Z,26.57
2023-05-22T08:11:57.333Z,26.76
2023-05-22T08:16:58.910Z,26.73
2023-05-22T08:21:58.166Z,26.79
2023-05-22T08:26:58.117Z,25.95
2023-05-22T08:31:58.181Z,26.92
2023-05-22T08:36:57.258Z,28.54
2023-05-22T08:41:57.367Z,29.46
2023-05-22T08:46:59.598Z,30.09
2023-05-22T08:51:59.900Z,30.06
2023-05-22T08:56:57.825Z,30.62
2023-05-22T09:01:57.925Z,30.01
2023-05-22T09:06:57.417Z,30.01
2023-05-22T09:11:58.603Z,30.12
2023-05-22T09:16:57.520Z,30.55
2023-05-22T09:22:06.175Z,31.17
2023-05-22T09:26:57.347Z,29.72
2023-05-22T09:31:57.675Z,28.48
2023-05-22T09:36:57.670Z,26.74
2023-05-22T09:41:57.442Z,26.48
2023-05-22T09:46:58.303Z,27.68
2023-05-22T09:51:58.205Z,29.57
2023-05-22T09:57:00.192Z,30.17
2023-05-22T10:01:57.636Z,30.68
2023-05-22T10:06:58.159Z,28.23
2023-05-22T10:11:58.934Z,28.51
2023-05-22T10:17:01.982Z,29.92
2023-05-22T10:21:57.886Z,30.14
2023-05-22T10:26:58.156Z,30.57
2023-05-22T10:31:59.550Z,31.07
2023-05-22T10:37:17.332Z,31.45
2023-05-22T10:41:57.476Z,31.77
2023-05-22T10:46:57.482Z,31.82
2023-05-22T10:51:59.229Z,31.46
2023-05-22T10:57:07.500Z,31.92
2023-05-22T11:02:04.041Z,31.87
2023-05-22T11:07:07.682Z,31.79
2023-05-22T11:12:08.561Z,31.79
2023-05-22T11:17:03.611Z,32.47
2023-05-22T11:22:03.851Z,32.92
2023-05-22T11:27:09.492Z,32.27
2023-05-22T11:31:58.220Z,31.75
2023-05-22T11:37:01.345Z,31.01
2023-05-22T11:41:57.612Z,31.21
2023-05-22T11:46:57.632Z,32.55
2023-05-22T11:51:57.558Z,32.63
2023-05-22T11:56:57.524Z,32.76
2023-05-22T12:01:57.877Z,32.51
2023-05-22T12:06:58.119Z,30.63
2023-05-22T12:11:58.645Z,30.82
2023-05-22T12:16:59.412Z,29.3
2023-05-22T12:21:58.297Z,30.02
2023-05-22T12:26:57.652Z,30.81
2023-05-22T12:31:57.700Z,30.81
2023-05-22T12:36:57.626Z,29.42
2023-05-22T12:41:57.597Z,28.79
2023-05-22T12:46:57.631Z,30.79
2023-05-22T12:51:57.639Z,31.27
2023-05-22T12:56:57.587Z,31.88
2023-05-22T13:02:01.876Z,31.47
2023-05-22T13:06:57.668Z,31.4
2023-05-22T13:11:57.713Z,31.46
2023-05-22T13:16:57.629Z,31.85
2023-05-22T13:21:57.622Z,31.22
2023-05-22T13:26:57.686Z,29.85
2023-05-22T13:31:57.685Z,29.23
2023-05-22T13:36:57.738Z,29.11
2023-05-22T13:41:58.979Z,30.11
2023-05-22T13:46:57.713Z,30.71
2023-05-22T13:51:57.686Z,31.17
2023-05-22T13:56:59.735Z,31.18
2023-05-22T14:01:57.887Z,30.64
2023-05-22T14:06:57.721Z,29.56
2023-05-22T14:11:57.818Z,29.03
2023-05-22T14:16:57.833Z,28.31
2023-05-22T14:21:57.737Z,28.23
2023-05-22T14:26:58.211Z,27.45
2023-05-22T14:31:59.328Z,26.86
2023-05-22T14:36:58.340Z,25.52
2023-05-22T14:41:57.866Z,24.12
2023-05-22T14:46:57.947Z,23.4
2023-05-22T14:51:57.756Z,22.79
2023-05-22T14:56:57.767Z,22.07
2023-05-22T15:01:57.814Z,21.47
2023-05-22T15:06:57.742Z,21.2
2023-05-22T15:11:57.817Z,21.03
2023-05-22T15:16:57.757Z,20.91
2023-05-22T15:22:08.885Z,20.9
2023-05-22T15:26:57.730Z,21.04
2023-05-22T15:31:57.805Z,21.3
2023-05-22T15:36:57.814Z,21.25
2023-05-22T15:42:05.815Z,21.39
2023-05-22T15:46:58.682Z,21.62
2023-05-22T15:51:57.849Z,21.55
2023-05-22T15:56:57.743Z,21.57
2023-05-22T16:01:57.797Z,21.61
2023-05-22T16:06:57.750Z,22.03
2023-05-22T16:11:57.830Z,23.41
2023-05-22T16:16:57.793Z,24.34
2023-05-22T16:21:57.800Z,24.2
2023-05-22T16:26:57.854Z,24.7
2023-05-22T16:31:57.887Z,25.06
2023-05-22T16:36:57.816Z,25.14
2023-05-22T16:41:57.819Z,25.25
2023-05-22T16:46:57.879Z,25.14
2023-05-22T16:51:57.906Z,24
2023-05-22T16:56:57.871Z,23.93
2023-05-22T17:01:57.892Z,23.74
2023-05-22T17:06:59.036Z,23.28
2023-05-22T17:11:58.025Z,23.26
2023-05-22T17:16:58.554Z,23.3
2023-05-22T17:21:57.840Z,23.02
2023-05-22T17:26:57.910Z,22.77
2023-05-22T17:31:57.862Z,22.61
2023-05-22T17:36:59.231Z,22.7
2023-05-22T17:41:59.668Z,22.68
2023-05-22T17:46:57.908Z,22.27
2023-05-22T17:51:57.887Z,21.41
2023-05-22T17:56:58.244Z,20.57
2023-05-22T18:01:58.685Z,20.21
2023-05-22T18:06:58.002Z,19.88
2023-05-22T18:11:59.007Z,19.68
2023-05-22T18:16:58.328Z,19.41
2023-05-22T18:21:57.997Z,19.17
2023-05-22T18:32:39.846Z,18.75
2023-05-22T18:37:39.690Z,18.52
2023-05-22T18:42:39.727Z,18.28
2023-05-22T18:47:39.761Z,18.01
2023-05-22T18:52:39.886Z,17.78
2023-05-22T18:57:39.738Z,17.53
2023-05-22T19:02:39.815Z,17.28
2023-05-22T19:07:39.767Z,17.06
2023-05-22T19:12:39.781Z,16.89
2023-05-22T19:17:39.859Z,16.71
2023-05-22T19:22:39.742Z,16.5
2023-05-22T19:27:39.848Z,16.35
2023-05-22T19:32:39.843Z,16.15
2023-05-22T19:37:39.729Z,16.01
2023-05-22T19:42:41.173Z,15.86
2023-05-22T19:47:39.849Z,15.72
2023-05-22T19:52:39.795Z,15.66
2023-05-22T19:57:39.792Z,15.53
2023-05-22T20:02:39.835Z,15.42
2023-05-22T20:07:39.865Z,15.32
2023-05-22T20:12:40.117Z,15.18
2023-05-22T20:17:41.606Z,15.05
2023-05-22T20:22:39.857Z,14.94
2023-05-22T20:27:39.986Z,14.87
2023-05-22T20:32:40.118Z,14.82
2023-05-22T20:37:41.435Z,14.74
2023-05-22T20:42:40.869Z,14.68
2023-05-22T20:47:40.154Z,14.68
2023-05-22T20:52:40.442Z,14.67
2023-05-22T20:57:39.863Z,14.79
2023-05-22T21:02:39.925Z,14.68
2023-05-22T21:07:39.922Z,14.5
2023-05-22T21:12:39.822Z,14.3
2023-05-22T21:17:39.899Z,14.26
2023-05-22T21:22:39.983Z,14.32
2023-05-22T21:27:39.865Z,14.32
2023-05-22T21:32:39.919Z,14.26
2023-05-22T21:37:40.214Z,14.16
2023-05-22T21:42:46.669Z,14.15
2023-05-22T21:47:39.968Z,14.1
2023-05-22T21:52:39.960Z,14.11
2023-05-22T21:57:39.891Z,13.87
2023-05-22T22:02:39.984Z,13.89
2023-05-22T22:07:39.847Z,13.51
2023-05-22T22:12:39.986Z,13.28
2023-05-22T22:17:40.591Z,13.47
2023-05-22T22:22:39.941Z,13.65
2023-05-22T22:27:39.980Z,13.71
2023-05-22T22:32:39.957Z,13.72
2023-05-22T22:37:40.203Z,13.65
2023-05-22T22:42:39.942Z,13.69
2023-05-22T22:47:39.955Z,13.72
2023-05-22T22:52:40.023Z,13.76
2023-05-22T22:57:43.040Z,13.8
2023-05-22T23:02:40.149Z,13.81
2023-05-22T23:07:39.959Z,13.81
2023-05-22T23:12:40.014Z,13.81
2023-05-22T23:17:40.052Z,13.78
2023-05-22T23:22:39.997Z,13.77
2023-05-22T23:27:40.172Z,13.77
2023-05-22T23:32:40.009Z,13.77
2023-05-22T23:37:40.133Z,13.79
2023-05-22T23:42:40.116Z,13.75
2023-05-22T23:47:40.049Z,13.71
2023-05-22T23:52:40.019Z,13.75
2023-05-22T23:57:40.005Z,13.74
